KAL946 EDDF-RKSI
Flight info
| Callsign | KAL946 |
|---|---|
| Flight time | N/A |
| Altitude | 31000 |
| Route | CINDY5L CINDY Z74 HAREM DCT ASLEP DCT TAKUT DCT DINKU L603 BESNI L605 MIQ DCT ALUTU DCT BIBAG Q104 AKIMA DCT STEIN DCT TEGRI DCT LUGEB/N0492F330 DCT UDROS UM859 KARDE UN644 ROLIN DCT TAGAR DCT BT DCT BARAD M747 SUBUT T923 ERLEV L850 BAKUV N701 LARGI B701 KRS B738 NEBIT B476 TIMGA A480 OTBOR/K0911F330 N147 EVTEV/K0898F350 N147 GENDI Z621 ARBOL M610 RULAD/K0902S1070 A343 POSOT B215 FKG W188 LIKMI W270 DKO/K0893S1130 W69 HUR B339 LADIX W34 VAPGU W100 ORAVA W201 UNSEK A326 DONVO G597 AGAVO/N0506F290 Y644 REBIT REBIT1Y |
| Aircraft | B77W/H-SDE1E2E3FGHIJ2J3J4J5M1RWXY/LB1D1 |
Departure
| Time | N/A |
|---|---|
| Airport | Frankfurt Main Airport (EDDF) |
Arrival
| Time | 2026-05-04 00:11 |
|---|---|
| Airport | Incheon International Airport (RKSI) |
| Time | Latitude | Longitude | Altitude | Speed | Heading |
|---|---|---|---|---|---|
| 2026-05-03 23:30 | 38.41550 | 121.44332 | 37010 ft | 526 kts | 99° |
| 2026-05-03 23:30 | 38.40048 | 121.53449 | 37008 ft | 525 kts | 99° |
| 2026-05-03 23:31 | 38.38541 | 121.62484 | 37003 ft | 525 kts | 99° |
| 2026-05-03 23:31 | 38.37016 | 121.71581 | 36997 ft | 526 kts | 100° |
| 2026-05-03 23:32 | 38.35482 | 121.80684 | 37001 ft | 526 kts | 100° |
| 2026-05-03 23:32 | 38.33949 | 121.89741 | 36996 ft | 525 kts | 100° |
| 2026-05-03 23:33 | 38.32411 | 121.98780 | 36998 ft | 526 kts | 100° |
| 2026-05-03 23:33 | 38.30861 | 122.07849 | 37004 ft | 527 kts | 100° |
| 2026-05-03 23:34 | 38.29292 | 122.16984 | 37000 ft | 527 kts | 101° |
| 2026-05-03 23:34 | 38.27851 | 122.25327 | 36994 ft | 528 kts | 100° |
| 2026-05-03 23:35 | 38.26496 | 122.34514 | 36998 ft | 528 kts | 98° |
| 2026-05-03 23:35 | 38.24293 | 122.43388 | 36999 ft | 531 kts | 115° |
| 2026-05-03 23:36 | 38.20230 | 122.51215 | 36997 ft | 531 kts | 133° |
| 2026-05-03 23:36 | 38.15144 | 122.57961 | 36996 ft | 530 kts | 136° |
| 2026-05-03 23:37 | 38.09987 | 122.64629 | 37002 ft | 531 kts | 136° |
| 2026-05-03 23:37 | 38.04821 | 122.71348 | 36997 ft | 530 kts | 136° |
| 2026-05-03 23:38 | 37.99683 | 122.78034 | 36991 ft | 530 kts | 136° |
| 2026-05-03 23:38 | 37.94529 | 122.84718 | 36992 ft | 531 kts | 136° |
| 2026-05-03 23:39 | 37.89360 | 122.91405 | 36992 ft | 533 kts | 136° |
| 2026-05-03 23:39 | 37.84195 | 122.98068 | 36989 ft | 531 kts | 137° |
| 2026-05-03 23:40 | 37.79031 | 123.04714 | 36994 ft | 532 kts | 137° |
| 2026-05-03 23:40 | 37.73835 | 123.11388 | 36983 ft | 533 kts | 137° |
| 2026-05-03 23:41 | 37.68637 | 123.18049 | 36988 ft | 532 kts | 137° |
| 2026-05-03 23:41 | 37.63432 | 123.24704 | 36958 ft | 532 kts | 137° |
| 2026-05-03 23:42 | 37.58203 | 123.31374 | 36994 ft | 536 kts | 137° |
| 2026-05-03 23:42 | 37.53502 | 123.38605 | 37000 ft | 538 kts | 129° |
| 2026-05-03 23:43 | 37.49007 | 123.46170 | 36995 ft | 539 kts | 129° |
| 2026-05-03 23:43 | 37.44514 | 123.53710 | 37001 ft | 539 kts | 129° |
| 2026-05-03 23:44 | 37.40014 | 123.61239 | 37007 ft | 539 kts | 129° |
| 2026-05-03 23:44 | 37.35512 | 123.68751 | 36992 ft | 538 kts | 130° |
| 2026-05-03 23:45 | 37.31004 | 123.76253 | 36984 ft | 540 kts | 130° |
| 2026-05-03 23:45 | 37.26505 | 123.83724 | 36990 ft | 539 kts | 130° |
| 2026-05-03 23:46 | 37.21985 | 123.91283 | 36981 ft | 542 kts | 127° |
| 2026-05-03 23:46 | 37.18619 | 123.99736 | 36987 ft | 548 kts | 109° |
| 2026-05-03 23:47 | 37.17200 | 124.09016 | 36954 ft | 545 kts | 91° |
| 2026-05-03 23:47 | 37.17206 | 124.13752 | 36728 ft | 543 kts | 86° |
| 2026-05-03 23:47 | 37.17363 | 124.18454 | 36248 ft | 539 kts | 85° |
| 2026-05-03 23:48 | 37.17533 | 124.23141 | 35539 ft | 540 kts | 85° |
| 2026-05-03 23:48 | 37.17688 | 124.27829 | 34891 ft | 543 kts | 85° |
| 2026-05-03 23:48 | 37.17809 | 124.32574 | 34244 ft | 545 kts | 85° |
| 2026-05-03 23:48 | 37.17922 | 124.37270 | 33493 ft | 548 kts | 85° |
| 2026-05-03 23:49 | 37.18036 | 124.42026 | 32662 ft | 551 kts | 84° |
| 2026-05-03 23:49 | 37.18147 | 124.46838 | 32081 ft | 546 kts | 84° |
| 2026-05-03 23:49 | 37.18251 | 124.51485 | 31704 ft | 538 kts | 84° |
| 2026-05-03 23:49 | 37.18354 | 124.56143 | 31320 ft | 530 kts | 83° |
| 2026-05-03 23:50 | 37.18454 | 124.60743 | 30938 ft | 523 kts | 83° |
| 2026-05-03 23:50 | 37.18520 | 124.63779 | 30630 ft | 519 kts | 82° |
| 2026-05-03 23:50 | 37.18648 | 124.69734 | 29947 ft | 513 kts | 82° |
| 2026-05-03 23:50 | 37.18743 | 124.74219 | 29341 ft | 509 kts | 83° |
| 2026-05-03 23:51 | 37.18835 | 124.78635 | 28753 ft | 504 kts | 82° |
| 2026-05-03 23:51 | 37.18926 | 124.83028 | 28184 ft | 500 kts | 82° |
| 2026-05-03 23:51 | 37.19012 | 124.87328 | 27653 ft | 495 kts | 82° |
| 2026-05-03 23:51 | 37.19096 | 124.91621 | 27168 ft | 489 kts | 82° |
| 2026-05-03 23:52 | 37.19178 | 124.95852 | 26614 ft | 484 kts | 82° |
| 2026-05-03 23:52 | 37.19258 | 125.00054 | 26051 ft | 480 kts | 82° |
| 2026-05-03 23:52 | 37.19336 | 125.04190 | 25480 ft | 476 kts | 82° |
| 2026-05-03 23:52 | 37.19410 | 125.08280 | 24975 ft | 471 kts | 81° |
| 2026-05-03 23:53 | 37.19484 | 125.12379 | 24478 ft | 466 kts | 81° |
| 2026-05-03 23:53 | 37.19554 | 125.16373 | 24053 ft | 459 kts | 81° |
| 2026-05-03 23:53 | 37.19623 | 125.20361 | 23518 ft | 455 kts | 81° |
| 2026-05-03 23:53 | 37.19690 | 125.24292 | 22988 ft | 451 kts | 81° |
| 2026-05-03 23:54 | 37.19756 | 125.28182 | 22441 ft | 448 kts | 80° |
| 2026-05-03 23:54 | 37.19819 | 125.32043 | 21960 ft | 443 kts | 81° |
| 2026-05-03 23:54 | 37.19880 | 125.35870 | 21467 ft | 439 kts | 80° |
| 2026-05-03 23:54 | 37.19941 | 125.39701 | 20958 ft | 434 kts | 81° |
| 2026-05-03 23:55 | 37.19999 | 125.43469 | 20393 ft | 432 kts | 81° |
| 2026-05-03 23:55 | 37.19916 | 125.47212 | 19852 ft | 436 kts | 89° |
| 2026-05-03 23:55 | 37.19334 | 125.50944 | 19293 ft | 443 kts | 99° |
| 2026-05-03 23:55 | 37.18367 | 125.54631 | 18773 ft | 442 kts | 102° |
| 2026-05-03 23:56 | 37.17362 | 125.58221 | 18296 ft | 438 kts | 103° |
| 2026-05-03 23:56 | 37.16363 | 125.61771 | 17795 ft | 434 kts | 103° |
| 2026-05-03 23:56 | 37.15351 | 125.65350 | 17262 ft | 432 kts | 104° |
| 2026-05-03 23:56 | 37.14362 | 125.68845 | 16777 ft | 427 kts | 104° |
| 2026-05-03 23:57 | 37.13364 | 125.72358 | 16252 ft | 424 kts | 104° |
| 2026-05-03 23:57 | 37.12381 | 125.75817 | 15725 ft | 421 kts | 104° |
| 2026-05-03 23:57 | 37.11441 | 125.79294 | 14983 ft | 421 kts | 100° |
| 2026-05-03 23:57 | 37.10904 | 125.82932 | 14043 ft | 422 kts | 91° |
| 2026-05-03 23:58 | 37.10576 | 125.86578 | 13404 ft | 419 kts | 91° |
| 2026-05-03 23:58 | 37.10262 | 125.90179 | 12879 ft | 415 kts | 92° |
| 2026-05-03 23:58 | 37.09950 | 125.93740 | 12311 ft | 412 kts | 92° |
| 2026-05-03 23:58 | 37.09636 | 125.97306 | 11719 ft | 408 kts | 92° |
| 2026-05-03 23:59 | 37.09333 | 126.00800 | 11134 ft | 405 kts | 91° |
| 2026-05-03 23:59 | 37.09266 | 126.04286 | 10545 ft | 400 kts | 85° |
| 2026-05-03 23:59 | 37.09301 | 126.07759 | 9962 ft | 396 kts | 85° |
| 2026-05-03 23:59 | 37.09380 | 126.11147 | 9448 ft | 388 kts | 80° |
| 2026-05-04 00:00 | 37.09851 | 126.14424 | 8889 ft | 381 kts | 71° |
| 2026-05-04 00:00 | 37.10515 | 126.17639 | 8312 ft | 377 kts | 70° |
| 2026-05-04 00:00 | 37.11175 | 126.20777 | 7789 ft | 373 kts | 70° |
| 2026-05-04 00:00 | 37.11837 | 126.23928 | 7337 ft | 367 kts | 71° |
| 2026-05-04 00:01 | 37.12476 | 126.26977 | 7229 ft | 352 kts | 70° |
| 2026-05-04 00:01 | 37.13082 | 126.29879 | 7197 ft | 335 kts | 70° |
| 2026-05-04 00:01 | 37.13660 | 126.32647 | 7192 ft | 319 kts | 70° |
| 2026-05-04 00:01 | 37.14210 | 126.35274 | 7190 ft | 303 kts | 69° |
| 2026-05-04 00:02 | 37.14726 | 126.37742 | 7177 ft | 289 kts | 69° |
| 2026-05-04 00:02 | 37.15227 | 126.40143 | 7137 ft | 277 kts | 69° |
| 2026-05-04 00:02 | 37.15712 | 126.42454 | 6847 ft | 276 kts | 69° |
| 2026-05-04 00:02 | 37.16204 | 126.44804 | 6531 ft | 275 kts | 69° |
| 2026-05-04 00:03 | 37.16689 | 126.47131 | 6234 ft | 274 kts | 69° |
| 2026-05-04 00:03 | 37.17169 | 126.49441 | 5947 ft | 273 kts | 69° |
| 2026-05-04 00:03 | 37.17649 | 126.51753 | 5636 ft | 272 kts | 69° |
| 2026-05-04 00:03 | 37.18179 | 126.53981 | 5344 ft | 265 kts | 57° |
| 2026-05-04 00:04 | 37.19105 | 126.55934 | 5041 ft | 259 kts | 48° |
| 2026-05-04 00:04 | 37.20139 | 126.57779 | 4775 ft | 256 kts | 47° |
| 2026-05-04 00:04 | 37.21177 | 126.59551 | 4493 ft | 252 kts | 40° |
| 2026-05-04 00:04 | 37.22575 | 126.60756 | 4101 ft | 238 kts | 12° |
| 2026-05-04 00:05 | 37.24173 | 126.60965 | 3776 ft | 227 kts | 346° |
| 2026-05-04 00:05 | 37.25642 | 126.60360 | 3494 ft | 222 kts | 332° |
| 2026-05-04 00:05 | 37.26551 | 126.59768 | 3296 ft | 221 kts | 329° |
| 2026-05-04 00:05 | 37.28288 | 126.58390 | 2915 ft | 220 kts | 323° |
| 2026-05-04 00:06 | 37.29524 | 126.57256 | 2698 ft | 216 kts | 323° |
| 2026-05-04 00:06 | 37.30730 | 126.56165 | 2588 ft | 208 kts | 324° |
| 2026-05-04 00:06 | 37.31884 | 126.55142 | 2560 ft | 195 kts | 324° |
| 2026-05-04 00:06 | 37.32956 | 126.54200 | 2565 ft | 182 kts | 324° |
| 2026-05-04 00:07 | 37.33969 | 126.53312 | 2508 ft | 171 kts | 324° |
| 2026-05-04 00:07 | 37.34933 | 126.52465 | 2290 ft | 169 kts | 324° |
| 2026-05-04 00:07 | 37.35885 | 126.51623 | 2073 ft | 167 kts | 324° |
| 2026-05-04 00:07 | 37.36797 | 126.50811 | 1884 ft | 152 kts | 324° |
| 2026-05-04 00:08 | 37.37645 | 126.50067 | 1720 ft | 142 kts | 325° |
| 2026-05-04 00:08 | 37.38417 | 126.49403 | 1520 ft | 131 kts | 325° |
| 2026-05-04 00:08 | 37.39166 | 126.48734 | 1339 ft | 131 kts | 324° |
| 2026-05-04 00:08 | 37.39918 | 126.48075 | 1153 ft | 132 kts | 324° |
| 2026-05-04 00:09 | 37.40659 | 126.47410 | 979 ft | 133 kts | 323° |
| 2026-05-04 00:09 | 37.41430 | 126.46742 | 780 ft | 134 kts | 324° |
| 2026-05-04 00:09 | 37.42199 | 126.46066 | 597 ft | 135 kts | 323° |
| 2026-05-04 00:09 | 37.42969 | 126.45377 | 405 ft | 136 kts | 323° |
| 2026-05-04 00:10 | 37.43747 | 126.44694 | 217 ft | 137 kts | 323° |
| 2026-05-04 00:10 | 37.44534 | 126.43995 | 41 ft | 138 kts | 323° |
| 2026-05-04 00:10 | 37.45225 | 126.43380 | 35 ft | 103 kts | 324° |
| 2026-05-04 00:10 | 37.45716 | 126.42942 | 35 ft | 68 kts | 324° |
| 2026-05-04 00:11 | 37.46009 | 126.42680 | 35 ft | 33 kts | 324° |
| 2026-05-04 00:11 | 37.46115 | 126.42591 | 35 ft | 12 kts | 338° |
| 2026-05-04 00:11 | 37.46191 | 126.42609 | 35 ft | 11 kts | 39° |
| 2026-05-04 00:11 | 37.46236 | 126.42689 | 35 ft | 10 kts | 71° |
| 2026-05-04 00:12 | 37.46249 | 126.42783 | 35 ft | 10 kts | 68° |
| 2026-05-04 00:12 | 37.46286 | 126.42863 | 35 ft | 10 kts | 56° |
| 2026-05-04 00:12 | 37.46328 | 126.42939 | 35 ft | 10 kts | 54° |
| 2026-05-04 00:12 | 37.46353 | 126.43018 | 35 ft | 9 kts | 74° |
| 2026-05-04 00:13 | 37.46378 | 126.43098 | 35 ft | 7 kts | 66° |
| 2026-05-04 00:13 | 37.46393 | 126.43143 | 35 ft | 3 kts | 66° |
| 2026-05-04 00:13 | 37.46399 | 126.43160 | 35 ft | 1 kts | 66° |
| 2026-05-04 00:13 | 37.46399 | 126.43162 | 35 ft | 0 kts | 66° |